Camarillo, CA

8:45 PM PDT on July 04, 2015 (GMT -0700)
Camarillo Heights | | Change Station
CLOSE
Current Station
Personal Weather Station
Location: Camarillo, CA
Elevation: 607 ft
Nearby Weather Stations

Elev 607 ft 34.25 °N, 119.05 °W | Updated 1 minute ago

Overcast
Overcast
62.4 °F
Feels Like 62.4 °F
N
1.7
Wind Variable Wind from SW

Today
High -- | Low -- °F
--% Chance of Precip.
Yesterday
High -- | Low -- °F
Precip. -- in
5:49 AM 8:11 PM
Waning Gibbous, 88% visible
Pressure 29.89 in
Visibility 10.0 miles
Clouds Overcast 900 ft
Dew Point 59 °F
Humidity 89%
Rainfall 0.00 in
Snow Depth Not available.
UV 0 out of 12
Pollen 5.50 out of 12
Air Quality Not available.
Flu Activity Not available.
SPECI KCMA 050328Z 27005KT 10SM OVC009 18/14 A2989 RMK AO2 T01780144

More Conditions Fewer Conditions

Pressure 29.89 in
Visibility 10.0 miles
Clouds Overcast 900 ft
Dew Point 59 °F
Humidity 89%
Rainfall 0.00 in
Snow Depth Not available.
UV 0 out of 12
Pollen 5.50 out of 12
Air Quality Not available.
Flu Activity Not available.
SPECI KCMA 050328Z 27005KT 10SM OVC009 18/14 A2989 RMK AO2 T01780144

More Conditions Fewer Conditions

10-Day Weather Forecast

×

Almanac

Astronomy

Jul. 04, 2015 Rise Set
Actual Time
Civil Twilight
Nautical Twilight
Astronomical Twilight
Moon
Length of Visible Light
Length of Day
Tomorrow will be .
, % of the Moon is Illuminated

Today's Extremes

State Highs State Lows

Community

WunderPhotos

Upload Photos

1,835,193 photos uploaded!

WunderBlogs® & News

Nearby

Air Quality

  Air Quality AQ Index Pollutant
Not available.

Snow Depth

Station Depth Elevation

Earthquake Activity

City Distance Mag. Time & Date
Minimum magnitude displayed is 2.5.

Coastal Water Temperatures

Place Temperature

Stations

Nearby Weather Stations

Station Location Temp. Windchill Dew Point Humidity Wind Precip. Elev Updated Type